createdAt,value
2022-10-17T00:00:02.227Z,96005.94
2022-10-17T00:00:58.930Z,96006.59
2022-10-17T00:01:55.705Z,95942.59
2022-10-17T00:02:55.350Z,96014.03
2022-10-17T00:03:52.030Z,95971.53
2022-10-17T00:04:48.708Z,96018.63
2022-10-17T00:05:47.898Z,95998.28
2022-10-17T00:06:44.599Z,96018.59
2022-10-17T00:07:41.469Z,96002.75
2022-10-17T00:08:40.770Z,95995.88
2022-10-17T00:09:37.496Z,96010.59
2022-10-17T00:10:34.490Z,95996.03
2022-10-17T00:11:31.182Z,95952.47
2022-10-17T00:12:27.885Z,95998.84
2022-10-17T00:13:25.696Z,95991.16
2022-10-17T00:14:22.454Z,96022.06
2022-10-17T00:15:20.950Z,96012.53
2022-10-17T00:16:30.318Z,96013.53
2022-10-17T00:17:27.186Z,96026.00
2022-10-17T00:18:24.338Z,96013.59
2022-10-17T00:19:21.033Z,96002.22
2022-10-17T00:20:18.297Z,95974.47
2022-10-17T00:21:17.369Z,96014.44
2022-10-17T00:22:14.082Z,96039.56
2022-10-17T00:23:10.922Z,96026.63
2022-10-17T00:24:07.611Z,96027.88
2022-10-17T00:25:04.792Z,96011.88
2022-10-17T00:26:05.376Z,95972.56
2022-10-17T00:27:02.120Z,95945.00
2022-10-17T00:27:58.907Z,95957.38
2022-10-17T00:28:55.728Z,96029.25
2022-10-17T00:29:52.578Z,95968.75
2022-10-17T00:30:58.910Z,96010.19
2022-10-17T00:31:56.973Z,95972.28
2022-10-17T00:32:53.679Z,96014.13
2022-10-17T00:33:51.843Z,95989.53
2022-10-17T00:34:48.557Z,96006.25
2022-10-17T00:35:45.293Z,95950.81
2022-10-17T00:36:41.976Z,96037.84
2022-10-17T00:37:38.750Z,95958.38
2022-10-17T00:38:36.906Z,96009.41
2022-10-17T00:39:33.652Z,95802.75
2022-10-17T00:40:30.389Z,96037.75
2022-10-17T00:41:30.360Z,96030.09
2022-10-17T00:42:28.467Z,96021.44
2022-10-17T00:43:26.629Z,95990.78
2022-10-17T00:44:29.452Z,96017.72
2022-10-17T00:45:31.153Z,96041.78
2022-10-17T00:46:33.600Z,96051.91
2022-10-17T00:47:31.018Z,96035.38
2022-10-17T00:48:28.185Z,95924.47
2022-10-17T00:49:30.288Z,96001.88
2022-10-17T00:50:28.627Z,96036.81
2022-10-17T00:51:33.966Z,95949.56
2022-10-17T00:52:31.934Z,96038.78
2022-10-17T00:53:28.974Z,96046.69
2022-10-17T00:54:33.976Z,95978.06
2022-10-17T00:55:35.655Z,96029.34
2022-10-17T00:56:33.148Z,95954.50
2022-10-17T00:57:32.617Z,96037.09
2022-10-17T00:58:29.326Z,96026.97
2022-10-17T00:59:26.849Z,96042.50
2022-10-17T01:00:24.661Z,96040.75
2022-10-17T01:01:21.387Z,96048.94
2022-10-17T01:02:21.625Z,96012.28
2022-10-17T01:03:18.644Z,96030.25
2022-10-17T01:04:15.883Z,96023.00
2022-10-17T01:05:13.241Z,95990.63
2022-10-17T01:06:10.113Z,95962.47
2022-10-17T01:07:06.844Z,96024.09
2022-10-17T01:08:04.137Z,95987.13
2022-10-17T01:09:01.036Z,95979.19
2022-10-17T01:09:57.961Z,96051.88
2022-10-17T01:11:17.486Z,96021.63
2022-10-17T01:12:34.453Z,95940.16
2022-10-17T01:13:46.859Z,96038.84
2022-10-17T01:15:07.775Z,96021.50
2022-10-17T01:16:39.067Z,96024.78
2022-10-17T01:18:00.249Z,96019.56
2022-10-17T01:19:07.266Z,96022.34
2022-10-17T01:20:22.857Z,96027.38
2022-10-17T01:21:44.724Z,96023.16
2022-10-17T01:22:52.683Z,96015.84
2022-10-17T01:24:11.090Z,96018.94
2022-10-17T01:25:25.881Z,96024.50
2022-10-17T01:26:54.762Z,96019.91
2022-10-17T01:28:03.349Z,96014.97
2022-10-17T01:29:35.701Z,96002.41
2022-10-17T01:30:59.426Z,96014.50
2022-10-17T01:32:02.406Z,95961.41
2022-10-17T01:33:10.467Z,96036.78
2022-10-17T01:34:13.381Z,96018.44
2022-10-17T01:35:17.661Z,96024.16
2022-10-17T01:36:55.182Z,96012.38
2022-10-17T01:38:23.445Z,96023.13
2022-10-17T01:39:38.385Z,95976.09
2022-10-17T01:40:48.747Z,96034.25
2022-10-17T01:42:11.420Z,95906.84
2022-10-17T01:43:31.320Z,96014.88
2022-10-17T01:44:53.127Z,95982.03
2022-10-17T01:46:00.397Z,96004.38
2022-10-17T01:47:05.572Z,96053.25
2022-10-17T01:48:08.984Z,96007.50
2022-10-17T01:49:10.037Z,96011.94
2022-10-17T01:50:15.244Z,96026.13
2022-10-17T01:51:30.519Z,96026.13
2022-10-17T01:52:34.727Z,96053.59
2022-10-17T01:53:44.680Z,96052.28
2022-10-17T01:54:50.120Z,96024.66
2022-10-17T01:55:54.136Z,95972.22
2022-10-17T01:56:58.662Z,96037.53
2022-10-17T01:58:06.169Z,96040.50
2022-10-17T01:59:11.914Z,96065.06
2022-10-17T02:00:22.515Z,96040.38
2022-10-17T02:01:22.707Z,96014.97
2022-10-17T02:02:22.927Z,96006.19
2022-10-17T02:03:21.920Z,95926.78
2022-10-17T02:04:18.780Z,96049.84
2022-10-17T02:05:20.315Z,96037.75
2022-10-17T02:06:17.009Z,96024.50
2022-10-17T02:07:13.815Z,96048.41
2022-10-17T02:08:10.626Z,96069.63
2022-10-17T02:09:20.151Z,96047.25
2022-10-17T02:10:30.530Z,95997.22
2022-10-17T02:11:27.861Z,96049.19
2022-10-17T02:12:30.355Z,96039.22
2022-10-17T02:13:39.144Z,96040.03
2022-10-17T02:14:49.518Z,96039.56
2022-10-17T02:15:58.505Z,96034.00
2022-10-17T02:17:19.639Z,96078.16
2022-10-17T02:18:44.699Z,95833.88
2022-10-17T02:19:56.946Z,96013.09
2022-10-17T02:21:01.353Z,96006.88
2022-10-17T02:22:06.658Z,96062.28
2022-10-17T02:23:30.437Z,96090.88
2022-10-17T02:24:36.108Z,96041.50
2022-10-17T02:25:46.873Z,96043.16
2022-10-17T02:26:57.470Z,96014.88
2022-10-17T02:28:22.447Z,96041.50
2022-10-17T02:29:47.824Z,96039.38
2022-10-17T02:31:02.699Z,96019.25
2022-10-17T02:32:17.273Z,96004.03
2022-10-17T02:33:23.326Z,96045.44
2022-10-17T02:34:30.846Z,96031.06
2022-10-17T02:35:33.021Z,96066.88
2022-10-17T02:36:36.869Z,96032.50
2022-10-17T02:37:36.466Z,95984.75
2022-10-17T02:38:35.604Z,96074.84
2022-10-17T02:39:36.684Z,96060.66
2022-10-17T02:40:34.694Z,96087.28
2022-10-17T02:41:33.223Z,96087.63
2022-10-17T02:42:33.177Z,96027.78
2022-10-17T02:43:30.372Z,96021.72
2022-10-17T02:44:30.494Z,96058.34
2022-10-17T02:45:30.410Z,96085.66
2022-10-17T02:46:30.367Z,96083.72
2022-10-17T02:47:34.849Z,96070.28
2022-10-17T02:48:40.366Z,96070.63
2022-10-17T02:49:44.218Z,96075.53
2022-10-17T02:51:10.008Z,96063.13
2022-10-17T02:52:15.854Z,96078.47
2022-10-17T02:53:20.914Z,96094.81
2022-10-17T02:54:31.801Z,95965.63
2022-10-17T02:55:39.161Z,96084.19
2022-10-17T02:56:54.978Z,96076.50
2022-10-17T02:57:58.949Z,96078.81
2022-10-17T02:59:00.085Z,96076.50
2022-10-17T03:00:00.913Z,96070.97
2022-10-17T03:00:59.086Z,96013.72
2022-10-17T03:01:55.999Z,96080.75
2022-10-17T03:02:54.127Z,96075.19
2022-10-17T03:03:51.063Z,96091.53
2022-10-17T03:04:47.774Z,96100.53
2022-10-17T03:05:44.469Z,96100.69
2022-10-17T03:06:41.976Z,96037.56
2022-10-17T03:07:38.760Z,96040.16
2022-10-17T03:08:35.500Z,96019.13
2022-10-17T03:09:32.272Z,96108.88
2022-10-17T03:10:29.001Z,96074.53
2022-10-17T03:11:25.695Z,96077.97
2022-10-17T03:12:22.366Z,96102.03
2022-10-17T03:13:19.627Z,96050.00
2022-10-17T03:14:16.459Z,96080.44
2022-10-17T03:15:14.191Z,96085.00
2022-10-17T03:16:10.909Z,96105.78
2022-10-17T03:17:07.624Z,96094.81
2022-10-17T03:18:04.345Z,96116.72
2022-10-17T03:19:01.061Z,96057.53
2022-10-17T03:19:57.902Z,96102.31
2022-10-17T03:20:54.602Z,96114.75
2022-10-17T03:21:51.366Z,96114.44
2022-10-17T03:22:48.045Z,96103.97
2022-10-17T03:23:44.765Z,96079.91
2022-10-17T03:24:41.461Z,96069.75
2022-10-17T03:25:38.178Z,95961.69
2022-10-17T03:26:34.927Z,96080.88
2022-10-17T03:27:31.957Z,96056.69
2022-10-17T03:28:28.982Z,96117.34
2022-10-17T03:29:25.734Z,96052.72
2022-10-17T03:30:22.394Z,96088.22
2022-10-17T03:31:19.108Z,96093.81
2022-10-17T03:32:15.796Z,95997.94
2022-10-17T03:33:12.478Z,96103.16
2022-10-17T03:34:09.186Z,96113.13
2022-10-17T03:35:06.121Z,96098.75
2022-10-17T03:36:11.344Z,96086.47
2022-10-17T03:37:08.100Z,96111.81
2022-10-17T03:38:04.780Z,96102.63
2022-10-17T03:39:01.823Z,96090.84
2022-10-17T03:39:58.520Z,96100.38
2022-10-17T03:40:56.517Z,96088.91
2022-10-17T03:41:53.239Z,96104.28
2022-10-17T03:42:49.921Z,96106.09
2022-10-17T03:43:46.677Z,96112.44
2022-10-17T03:44:43.373Z,95967.78
2022-10-17T03:45:40.065Z,96095.13
2022-10-17T03:46:36.767Z,96073.44
2022-10-17T03:47:33.510Z,96070.41
2022-10-17T03:48:31.619Z,96048.84
2022-10-17T03:49:28.330Z,96003.47
2022-10-17T03:50:25.203Z,96125.78
2022-10-17T03:51:22.086Z,96103.41
2022-10-17T03:52:18.942Z,95981.19
2022-10-17T03:53:15.799Z,96112.44
2022-10-17T03:54:12.605Z,96116.84
2022-10-17T03:55:09.447Z,96051.84
2022-10-17T03:56:23.419Z,96093.81
2022-10-17T03:57:20.280Z,96117.94
2022-10-17T03:58:16.974Z,96107.94
2022-10-17T03:59:15.373Z,96067.41
2022-10-17T04:00:12.754Z,96134.75
2022-10-17T04:01:12.157Z,96118.31
2022-10-17T04:02:08.916Z,96138.09
2022-10-17T04:03:05.673Z,96134.63
2022-10-17T04:04:02.398Z,96110.25
2022-10-17T04:04:59.158Z,96097.47
2022-10-17T04:05:59.681Z,96132.56
2022-10-17T04:06:56.369Z,96122.13
2022-10-17T04:07:53.071Z,96109.03
2022-10-17T04:08:50.461Z,95955.50
2022-10-17T04:09:47.254Z,96109.03
2022-10-17T04:10:43.971Z,96097.78
2022-10-17T04:11:40.775Z,96125.75
2022-10-17T04:12:37.742Z,96079.75
2022-10-17T04:13:36.030Z,96129.63
2022-10-17T04:14:32.736Z,96077.97
2022-10-17T04:15:29.483Z,96097.16
2022-10-17T04:16:27.125Z,96108.50
2022-10-17T04:17:23.830Z,96133.53
2022-10-17T04:18:20.502Z,96143.59
2022-10-17T04:19:17.389Z,96089.06
2022-10-17T04:20:14.126Z,96128.72
2022-10-17T04:21:12.236Z,96113.94
2022-10-17T04:22:08.948Z,96080.91
2022-10-17T04:23:05.625Z,96105.44
2022-10-17T04:24:02.339Z,96119.88
2022-10-17T04:24:59.044Z,96102.69
2022-10-17T04:25:57.750Z,96115.47
2022-10-17T04:26:55.051Z,96130.75
2022-10-17T04:27:51.767Z,96112.69
2022-10-17T04:28:48.469Z,96132.03
2022-10-17T04:29:45.235Z,96106.69
2022-10-17T04:30:45.094Z,96115.97
2022-10-17T04:31:42.550Z,96136.44
2022-10-17T04:32:39.575Z,96112.03
2022-10-17T04:33:36.303Z,96003.25
2022-10-17T04:34:33.120Z,96072.00
2022-10-17T04:35:29.834Z,96091.41
2022-10-17T04:36:26.510Z,96120.59
2022-10-17T04:37:23.228Z,96126.28
2022-10-17T04:38:20.701Z,96130.81
2022-10-17T04:39:19.540Z,96106.13
2022-10-17T04:40:16.308Z,96064.66
2022-10-17T04:41:16.205Z,96088.69
2022-10-17T04:42:12.893Z,96143.63
2022-10-17T04:43:09.572Z,96135.00
2022-10-17T04:44:06.332Z,95987.13
2022-10-17T04:45:03.203Z,96165.00
2022-10-17T04:46:02.655Z,96126.97
2022-10-17T04:46:59.491Z,96113.75
2022-10-17T04:47:56.252Z,96097.03
2022-10-17T04:48:54.099Z,96149.88
2022-10-17T04:49:50.799Z,96144.47
2022-10-17T04:51:00.642Z,96077.84
2022-10-17T04:51:57.312Z,96136.59
2022-10-17T04:52:54.070Z,96094.34
2022-10-17T04:53:50.833Z,96141.31
2022-10-17T04:54:47.501Z,96092.78
2022-10-17T04:55:44.222Z,96012.84
2022-10-17T04:56:41.165Z,96143.50
2022-10-17T04:57:37.848Z,96117.81
2022-10-17T04:58:34.775Z,96147.34
2022-10-17T04:59:31.489Z,96139.00
2022-10-17T05:00:28.218Z,95988.09
2022-10-17T05:01:26.056Z,96054.44
2022-10-17T05:02:23.195Z,96159.97
2022-10-17T05:03:19.902Z,96146.56
2022-10-17T05:04:18.147Z,96111.38
2022-10-17T05:05:16.651Z,96157.50
2022-10-17T05:06:20.852Z,96146.28
2022-10-17T05:07:17.530Z,96166.63
2022-10-17T05:08:14.261Z,96098.19
2022-10-17T05:09:10.930Z,96016.84
2022-10-17T05:10:08.286Z,96112.91
2022-10-17T05:11:06.694Z,96160.91
2022-10-17T05:12:05.494Z,96162.69
2022-10-17T05:13:05.505Z,96161.16
2022-10-17T05:14:02.667Z,96159.72
2022-10-17T05:14:59.498Z,96157.38
2022-10-17T05:16:01.007Z,96145.16
2022-10-17T05:16:57.710Z,96177.84
2022-10-17T05:17:56.089Z,96156.47
2022-10-17T05:18:55.317Z,96144.59
2022-10-17T05:19:52.077Z,96176.81
2022-10-17T05:20:48.790Z,96024.53
2022-10-17T05:21:45.596Z,96151.94
2022-10-17T05:22:42.491Z,96167.31
2022-10-17T05:23:39.237Z,96181.56
2022-10-17T05:24:36.030Z,96162.81
2022-10-17T05:25:32.848Z,96153.53
2022-10-17T05:26:29.557Z,96122.97
2022-10-17T05:27:26.475Z,96193.78
2022-10-17T05:28:24.085Z,96196.47
2022-10-17T05:29:20.947Z,96185.72
2022-10-17T05:30:18.036Z,96176.56
2022-10-17T05:31:14.963Z,96190.19
2022-10-17T05:32:11.779Z,96187.09
2022-10-17T05:33:08.474Z,96182.50
2022-10-17T05:34:07.046Z,96198.22
2022-10-17T05:35:06.398Z,96113.06
2022-10-17T05:36:03.570Z,96129.06
2022-10-17T05:37:00.262Z,96193.25
2022-10-17T05:37:59.131Z,96174.00
2022-10-17T05:38:55.930Z,96186.25
2022-10-17T05:39:52.702Z,95912.88
2022-10-17T05:40:49.488Z,96188.72
2022-10-17T05:41:46.786Z,96193.63
2022-10-17T05:42:49.853Z,96167.63
2022-10-17T05:43:46.897Z,96173.53
2022-10-17T05:44:43.608Z,96170.06
2022-10-17T05:45:40.831Z,96165.47
2022-10-17T05:46:37.581Z,96199.56
2022-10-17T05:47:34.293Z,96191.69
2022-10-17T05:48:31.025Z,96182.72
2022-10-17T05:49:45.094Z,96201.69
2022-10-17T05:50:44.454Z,96147.16
2022-10-17T05:51:41.182Z,96217.22
2022-10-17T05:52:38.054Z,96195.59
2022-10-17T05:53:37.250Z,96184.00
2022-10-17T05:54:34.556Z,96196.28
2022-10-17T05:55:31.326Z,96050.34
2022-10-17T05:56:28.015Z,96212.31
2022-10-17T05:57:26.460Z,96170.72
2022-10-17T05:58:45.446Z,96186.31
2022-10-17T05:59:39.778Z,96220.50
2022-10-17T06:00:36.541Z,96219.53
2022-10-17T06:01:33.384Z,96151.44
2022-10-17T06:02:30.366Z,96192.31
2022-10-17T06:03:27.811Z,96216.41
2022-10-17T06:04:24.646Z,96226.53
2022-10-17T06:05:22.247Z,96150.75
2022-10-17T06:06:19.779Z,96201.50
2022-10-17T06:07:17.132Z,96172.06
2022-10-17T06:08:13.884Z,96229.97
2022-10-17T06:09:10.598Z,96210.00
2022-10-17T06:10:07.651Z,96204.06
2022-10-17T06:11:07.679Z,96206.63
2022-10-17T06:12:08.074Z,96085.22
2022-10-17T06:13:04.810Z,96204.06
2022-10-17T06:14:02.244Z,96192.78
2022-10-17T06:14:59.065Z,96230.75
2022-10-17T06:15:55.815Z,96181.69
2022-10-17T06:16:52.533Z,96207.16
2022-10-17T06:17:49.231Z,96219.94
2022-10-17T06:18:45.969Z,96191.91
2022-10-17T06:19:44.563Z,96186.22
2022-10-17T06:20:45.252Z,96252.41
2022-10-17T06:21:42.931Z,96176.22
2022-10-17T06:22:39.636Z,96202.38
2022-10-17T06:23:36.871Z,96231.06
2022-10-17T06:24:33.575Z,96237.22
2022-10-17T06:25:34.243Z,96234.59
2022-10-17T06:26:30.940Z,96241.75
2022-10-17T06:27:27.667Z,96228.25
2022-10-17T06:28:24.419Z,96240.03
2022-10-17T06:29:21.510Z,96168.19
2022-10-17T06:30:18.259Z,96226.00
2022-10-17T06:31:17.884Z,96242.94
2022-10-17T06:32:15.329Z,96236.44
2022-10-17T06:33:12.139Z,96210.03
2022-10-17T06:34:08.855Z,96261.66
2022-10-17T06:35:06.055Z,96249.31
2022-10-17T06:36:04.344Z,96241.47
2022-10-17T06:37:01.061Z,96189.06
2022-10-17T06:37:57.855Z,96238.94
2022-10-17T06:38:54.589Z,96242.59
2022-10-17T06:39:51.353Z,96098.47
2022-10-17T06:40:48.045Z,96245.75
2022-10-17T06:41:44.865Z,96237.66
2022-10-17T06:42:41.634Z,96233.03
2022-10-17T06:43:38.549Z,96237.75
2022-10-17T06:44:35.486Z,96250.53
2022-10-17T06:45:32.166Z,96253.78
2022-10-17T06:46:29.887Z,96145.06
2022-10-17T06:47:26.988Z,96121.53
2022-10-17T06:48:23.929Z,96229.41
2022-10-17T06:49:20.678Z,96252.47
2022-10-17T06:50:17.513Z,96236.13
2022-10-17T06:51:14.237Z,96241.78
2022-10-17T06:52:11.001Z,96234.56
2022-10-17T06:53:07.701Z,96257.97
2022-10-17T06:54:04.869Z,96244.94
2022-10-17T06:56:04.345Z,96161.88
2022-10-17T06:57:01.063Z,96254.31
2022-10-17T06:57:57.847Z,96144.91
2022-10-17T06:58:54.780Z,96248.06
2022-10-17T06:59:51.524Z,96203.03
2022-10-17T07:00:48.325Z,96204.91
2022-10-17T07:01:47.145Z,96263.31
2022-10-17T07:02:44.363Z,96220.66
2022-10-17T07:03:41.337Z,96245.91
2022-10-17T07:04:38.171Z,96257.06
2022-10-17T07:05:34.866Z,96122.59
2022-10-17T07:06:32.173Z,96187.28
2022-10-17T07:07:32.516Z,96256.78
2022-10-17T07:08:29.807Z,96251.09
2022-10-17T07:09:27.782Z,96247.47
2022-10-17T07:10:24.502Z,96263.53
2022-10-17T07:11:22.893Z,96245.56
2022-10-17T07:12:19.687Z,96192.31
2022-10-17T07:13:16.981Z,96187.22
2022-10-17T07:14:13.718Z,96239.41
2022-10-17T07:15:10.870Z,96228.25
2022-10-17T07:16:08.410Z,96258.56
2022-10-17T07:17:05.311Z,96241.31
2022-10-17T07:18:02.039Z,96239.31
2022-10-17T07:18:58.723Z,96254.84
2022-10-17T07:19:55.595Z,96236.13
2022-10-17T07:20:55.848Z,96228.06
2022-10-17T07:21:54.057Z,96168.81
2022-10-17T07:22:50.743Z,96232.44
2022-10-17T07:23:47.425Z,96268.81
2022-10-17T07:24:44.190Z,96224.53
2022-10-17T07:25:40.910Z,96167.56
2022-10-17T07:26:37.642Z,96258.41
2022-10-17T07:27:34.426Z,96265.81
2022-10-17T07:28:31.177Z,96261.53
2022-10-17T07:29:28.003Z,96188.75
2022-10-17T07:30:25.086Z,96238.97
2022-10-17T07:31:23.630Z,96264.38
2022-10-17T07:32:20.320Z,96269.00
2022-10-17T07:33:17.018Z,96265.81
2022-10-17T07:34:13.727Z,96258.84
2022-10-17T07:35:11.761Z,96253.63
2022-10-17T07:36:09.783Z,96236.44
2022-10-17T07:37:07.428Z,96182.88
2022-10-17T07:38:04.114Z,96260.81
2022-10-17T07:39:00.814Z,96239.09
2022-10-17T07:39:57.516Z,96279.06
2022-10-17T07:41:05.933Z,96268.53
2022-10-17T07:42:02.727Z,96273.97
2022-10-17T07:43:00.022Z,96251.31
2022-10-17T07:43:56.742Z,96259.88
2022-10-17T07:44:53.426Z,96228.31
2022-10-17T07:45:50.562Z,96272.94
2022-10-17T07:46:47.252Z,96232.63
2022-10-17T07:47:43.974Z,96200.69
2022-10-17T07:48:40.731Z,96271.09
2022-10-17T07:49:42.446Z,96236.75
2022-10-17T07:50:39.567Z,96227.25
2022-10-17T07:51:36.378Z,96268.97
2022-10-17T07:52:33.267Z,96250.25
2022-10-17T07:53:30.304Z,96243.84
2022-10-17T07:54:27.106Z,96285.31
2022-10-17T07:55:23.799Z,96250.25
2022-10-17T07:56:24.619Z,96264.53
2022-10-17T07:57:21.330Z,96123.44
2022-10-17T07:58:18.754Z,96191.13
2022-10-17T07:59:15.600Z,96253.31
2022-10-17T08:00:12.686Z,96253.06
2022-10-17T08:01:15.537Z,96261.50
2022-10-17T08:02:22.834Z,96232.91
2022-10-17T08:03:19.613Z,96231.72
2022-10-17T08:04:17.019Z,96205.13
2022-10-17T08:05:13.841Z,96263.25
2022-10-17T08:06:10.634Z,96245.34
2022-10-17T08:07:21.753Z,96256.16
2022-10-17T08:08:21.001Z,96252.25
2022-10-17T08:09:17.930Z,96274.28
2022-10-17T08:10:16.121Z,96272.59
2022-10-17T08:11:14.963Z,96287.22
2022-10-17T08:12:14.606Z,96236.66
2022-10-17T08:13:11.352Z,96271.38
2022-10-17T08:14:08.033Z,96239.59
2022-10-17T08:15:06.976Z,96246.06
2022-10-17T08:16:07.466Z,96251.84
2022-10-17T08:17:04.484Z,96276.16
2022-10-17T08:18:01.347Z,96249.47
2022-10-17T08:18:58.134Z,96201.00
2022-10-17T08:19:54.875Z,96238.53
2022-10-17T08:20:51.586Z,96246.28
2022-10-17T08:21:50.085Z,96182.97
2022-10-17T08:22:53.211Z,96257.34
2022-10-17T08:23:49.924Z,96257.34
2022-10-17T08:24:46.694Z,96257.72
2022-10-17T08:25:43.374Z,96255.94
2022-10-17T08:26:42.470Z,96250.59
2022-10-17T08:27:40.712Z,96258.50
2022-10-17T08:28:39.202Z,96247.94
2022-10-17T08:29:36.049Z,96239.31
2022-10-17T08:30:32.847Z,96221.25
2022-10-17T08:31:29.762Z,96214.78
2022-10-17T08:32:28.623Z,96247.06
2022-10-17T08:33:25.579Z,96114.69
2022-10-17T08:34:22.289Z,96248.63
2022-10-17T08:35:19.049Z,96167.50
2022-10-17T08:36:18.854Z,96235.91
2022-10-17T08:37:15.620Z,96234.06
2022-10-17T08:38:13.458Z,96130.28
2022-10-17T08:39:10.530Z,96199.78
2022-10-17T08:40:14.899Z,96213.34
2022-10-17T08:41:52.963Z,96229.25
2022-10-17T08:43:14.145Z,96231.97
2022-10-17T08:44:29.197Z,96231.34
2022-10-17T08:45:35.721Z,96195.22
2022-10-17T08:46:40.912Z,96181.63
2022-10-17T08:47:48.622Z,96249.31
2022-10-17T08:48:49.879Z,96256.25
2022-10-17T08:49:58.021Z,96224.88
2022-10-17T08:51:04.274Z,96206.97
2022-10-17T08:52:22.463Z,96217.94
2022-10-17T08:53:35.533Z,96234.47
2022-10-17T08:54:46.192Z,96239.56
2022-10-17T08:55:47.854Z,96182.09
2022-10-17T08:56:49.774Z,96259.50
2022-10-17T08:57:48.319Z,96244.84
2022-10-17T08:58:45.255Z,96255.84
2022-10-17T08:59:44.603Z,96214.91
2022-10-17T09:01:10.521Z,96213.28
2022-10-17T09:02:15.369Z,96237.53
2022-10-17T09:03:12.140Z,96242.66
2022-10-17T09:04:24.469Z,96265.25
2022-10-17T09:05:26.484Z,96237.16
2022-10-17T09:06:30.011Z,96255.91
2022-10-17T09:07:35.595Z,96244.72
2022-10-17T09:08:44.294Z,96237.19
2022-10-17T09:10:15.542Z,96242.28
2022-10-17T09:11:38.660Z,96240.03
2022-10-17T09:12:57.939Z,96241.22
2022-10-17T09:14:25.202Z,96260.63
2022-10-17T09:15:40.441Z,96242.03
2022-10-17T09:16:49.248Z,96242.25
2022-10-17T09:17:59.854Z,96226.19
2022-10-17T09:19:37.396Z,96222.06
2022-10-17T09:20:44.801Z,96267.72
2022-10-17T09:21:53.717Z,96250.13
2022-10-17T09:23:15.324Z,96241.75
2022-10-17T09:24:31.276Z,96203.91
2022-10-17T09:25:31.512Z,96252.16
2022-10-17T09:26:28.676Z,96237.69
2022-10-17T09:28:02.558Z,96245.84
2022-10-17T09:29:01.112Z,96247.06
2022-10-17T09:30:33.475Z,96241.88
2022-10-17T09:32:01.445Z,96253.13
2022-10-17T09:32:58.221Z,96235.28
2022-10-17T09:34:01.943Z,96238.53
2022-10-17T09:34:58.901Z,96100.22
2022-10-17T09:35:58.618Z,96068.47
2022-10-17T09:36:58.642Z,96251.16
2022-10-17T09:37:55.421Z,96191.66
2022-10-17T09:38:59.030Z,96254.84
2022-10-17T09:39:55.983Z,96134.59
2022-10-17T09:41:00.037Z,96240.53
2022-10-17T09:42:01.693Z,96215.28
2022-10-17T09:43:02.666Z,96157.44
2022-10-17T09:44:12.121Z,96101.25
2022-10-17T09:45:19.572Z,96221.19
2022-10-17T09:46:38.342Z,96219.94
2022-10-17T09:47:46.348Z,96057.72
2022-10-17T09:48:54.326Z,96167.53
2022-10-17T09:49:52.164Z,96238.47
2022-10-17T09:50:57.939Z,96097.06
2022-10-17T09:52:12.367Z,96225.13
2022-10-17T09:53:34.921Z,96222.84
2022-10-17T09:54:47.899Z,96224.47
2022-10-17T09:55:55.568Z,96216.53
2022-10-17T09:56:58.265Z,96226.25
2022-10-17T09:58:00.926Z,96203.00
2022-10-17T09:58:59.270Z,96088.38
2022-10-17T09:59:57.657Z,96214.97
2022-10-17T10:01:21.060Z,96218.19
2022-10-17T10:02:24.149Z,96201.13
2022-10-17T10:03:26.301Z,96169.72
2022-10-17T10:04:23.106Z,96101.88
2022-10-17T10:05:21.051Z,96214.59
2022-10-17T10:06:20.326Z,96221.63
2022-10-17T10:07:18.905Z,96209.47
2022-10-17T10:08:19.017Z,96218.94
2022-10-17T10:09:28.380Z,96069.97
2022-10-17T10:10:28.134Z,96218.41
2022-10-17T10:11:45.230Z,96196.63
2022-10-17T10:12:42.497Z,96179.25
2022-10-17T10:13:39.234Z,96171.25
2022-10-17T10:14:39.627Z,96173.38
2022-10-17T10:15:43.635Z,96208.66
2022-10-17T10:16:43.876Z,96202.47
2022-10-17T10:17:42.170Z,96193.19
2022-10-17T10:18:38.847Z,96130.50
2022-10-17T10:19:38.909Z,96184.91
2022-10-17T10:20:37.953Z,96212.53
2022-10-17T10:21:37.205Z,96186.44
2022-10-17T10:22:34.203Z,96191.25
2022-10-17T10:23:30.950Z,96192.31
2022-10-17T10:24:31.066Z,96137.00
2022-10-17T10:25:27.927Z,96200.72
2022-10-17T10:26:29.918Z,96182.13
2022-10-17T10:27:29.683Z,96029.09
2022-10-17T10:28:32.985Z,96195.13
2022-10-17T10:29:36.758Z,96195.97
2022-10-17T10:30:36.232Z,96183.44
2022-10-17T10:31:39.919Z,96175.31
2022-10-17T10:33:56.790Z,96218.44
2022-10-17T10:35:08.635Z,96201.66
2022-10-17T10:36:07.877Z,96195.25
2022-10-17T10:37:17.932Z,96196.56
2022-10-17T10:38:18.128Z,96029.25
2022-10-17T10:39:41.078Z,96152.69
2022-10-17T10:41:11.306Z,96175.28
2022-10-17T10:42:23.362Z,96046.09
2022-10-17T10:43:36.907Z,96170.78
2022-10-17T10:44:38.321Z,96078.16
2022-10-17T10:45:52.822Z,96175.84
2022-10-17T10:47:07.137Z,96162.88
2022-10-17T10:48:23.920Z,96004.19
2022-10-17T10:49:31.639Z,96143.66
2022-10-17T10:50:45.509Z,96142.56
2022-10-17T10:51:47.781Z,96170.22
2022-10-17T10:53:08.512Z,96163.59
2022-10-17T10:55:49.274Z,96184.91
2022-10-17T10:56:58.172Z,96193.16
2022-10-17T10:58:01.441Z,95985.41
2022-10-17T10:59:04.262Z,96158.69
2022-10-17T11:00:17.705Z,96191.06
2022-10-17T11:01:25.551Z,96165.13
2022-10-17T11:02:35.316Z,96173.06
2022-10-17T11:03:58.754Z,96161.25
2022-10-17T11:05:22.455Z,96109.19
2022-10-17T11:06:28.829Z,96159.22
2022-10-17T11:07:36.687Z,96149.34
2022-10-17T11:08:48.638Z,96145.91
2022-10-17T11:10:15.251Z,96002.38
2022-10-17T11:11:27.967Z,96113.72
2022-10-17T11:12:24.708Z,96109.84
2022-10-17T11:13:29.083Z,96052.09
2022-10-17T11:14:53.737Z,96152.94
2022-10-17T11:16:04.457Z,95981.44
2022-10-17T11:17:22.605Z,96048.59
2022-10-17T11:18:34.447Z,96150.88
2022-10-17T11:20:00.759Z,96072.75
2022-10-17T11:21:08.076Z,96170.78
2022-10-17T11:22:26.598Z,96153.75
2022-10-17T11:24:02.258Z,96107.53
2022-10-17T11:25:13.330Z,96145.56
2022-10-17T11:26:29.131Z,96140.81
2022-10-17T11:27:30.079Z,96082.59
2022-10-17T11:28:26.875Z,96143.47
2022-10-17T11:29:29.775Z,96151.34
2022-10-17T11:30:35.872Z,96057.78
2022-10-17T11:31:40.167Z,96114.25
2022-10-17T11:32:40.891Z,96140.34
2022-10-17T11:33:59.032Z,96133.66
2022-10-17T11:35:04.334Z,96103.97
2022-10-17T11:36:06.818Z,96125.31
2022-10-17T11:37:19.608Z,96094.66
2022-10-17T11:38:45.039Z,96135.63
2022-10-17T11:40:08.228Z,96152.31
2022-10-17T11:41:11.725Z,95775.31
2022-10-17T11:42:41.458Z,96137.59
2022-10-17T11:43:49.254Z,96021.69
2022-10-17T11:44:46.077Z,96139.69
2022-10-17T11:45:53.276Z,96129.97
2022-10-17T11:47:00.155Z,96136.00
2022-10-17T11:48:17.544Z,96126.59
2022-10-17T11:49:21.949Z,95980.72
2022-10-17T11:52:01.532Z,96147.69
2022-10-17T11:53:08.518Z,96148.72
2022-10-17T11:54:26.715Z,96023.41
2022-10-17T11:55:26.782Z,96128.34
2022-10-17T11:57:04.726Z,96021.25
2022-10-17T11:58:35.904Z,96124.38
2022-10-17T12:00:03.508Z,96123.13
2022-10-17T12:01:32.289Z,96125.56
2022-10-17T12:02:36.536Z,96137.59
2022-10-17T12:03:45.272Z,95973.09
2022-10-17T12:05:06.984Z,96122.31
2022-10-17T12:06:12.179Z,96119.41
2022-10-17T12:07:11.684Z,96104.47
2022-10-17T12:08:32.399Z,96114.41
2022-10-17T12:09:49.989Z,96113.41
2022-10-17T12:11:22.070Z,96013.00
2022-10-17T12:12:32.486Z,96113.78
2022-10-17T12:13:29.770Z,96117.94
2022-10-17T12:14:47.964Z,96114.72
2022-10-17T12:15:46.658Z,95972.91
2022-10-17T12:16:45.743Z,96087.22